createdAt,value
2023-01-03T00:01:26.596Z,6.90
2023-01-03T00:03:56.040Z,6.90
2023-01-03T00:06:27.604Z,6.90
2023-01-03T00:08:56.679Z,6.90
2023-01-03T00:11:42.171Z,6.80
2023-01-03T00:14:11.372Z,6.80
2023-01-03T00:16:40.285Z,6.90
2023-01-03T00:19:09.182Z,6.90
2023-01-03T00:21:38.533Z,6.90
2023-01-03T00:24:07.898Z,6.90
2023-01-03T00:26:36.396Z,6.90
2023-01-03T00:29:04.701Z,6.90
2023-01-03T00:31:34.497Z,7.00
2023-01-03T00:34:02.352Z,7.00
2023-01-03T00:36:30.258Z,7.00
2023-01-03T00:38:59.975Z,7.00
2023-01-03T00:41:27.842Z,7.00
2023-01-03T00:43:55.703Z,7.00
2023-01-03T00:46:24.116Z,7.00
2023-01-03T00:48:52.121Z,7.00
2023-01-03T00:51:21.804Z,7.00
2023-01-03T00:53:51.660Z,7.00
2023-01-03T00:56:22.518Z,6.90
2023-01-03T00:58:50.610Z,6.90
2023-01-03T01:01:21.637Z,6.80
2023-01-03T01:03:52.301Z,6.80
2023-01-03T01:06:21.756Z,6.80
2023-01-03T01:08:50.775Z,6.70
2023-01-03T01:11:20.416Z,6.70
2023-01-03T01:13:49.579Z,6.70
2023-01-03T01:16:19.937Z,6.70
2023-01-03T01:18:50.504Z,6.70
2023-01-03T01:21:20.638Z,6.60
2023-01-03T01:23:48.965Z,6.60
2023-01-03T01:26:19.963Z,6.60
2023-01-03T01:28:50.222Z,6.60
2023-01-03T01:31:21.095Z,6.60
2023-01-03T01:33:49.638Z,6.60
2023-01-03T01:36:19.613Z,6.50
2023-01-03T01:38:49.282Z,6.50
2023-01-03T01:41:39.357Z,6.50
2023-01-03T01:44:38.281Z,6.40
2023-01-03T01:47:06.763Z,6.40
2023-01-03T01:49:34.622Z,6.40
2023-01-03T01:52:03.600Z,6.30
2023-01-03T01:54:31.928Z,6.30
2023-01-03T01:56:59.841Z,6.30
2023-01-03T01:59:29.267Z,6.30
2023-01-03T02:01:57.256Z,6.20
2023-01-03T02:04:31.835Z,6.20
2023-01-03T02:07:00.771Z,6.20
2023-01-03T02:09:32.136Z,6.10
2023-01-03T02:12:22.888Z,6.10
2023-01-03T02:15:07.283Z,6.10
2023-01-03T02:17:46.066Z,6.10
2023-01-03T02:20:25.701Z,6.10
2023-01-03T02:23:34.548Z,6.10
2023-01-03T02:26:24.534Z,6.10
2023-01-03T02:29:28.147Z,6.00
2023-01-03T02:32:04.207Z,6.00
2023-01-03T02:34:41.495Z,6.00
2023-01-03T02:37:19.410Z,6.00
2023-01-03T02:39:54.005Z,5.90
2023-01-03T02:42:54.023Z,5.90
2023-01-03T02:45:36.175Z,5.90
2023-01-03T02:48:11.057Z,5.80
2023-01-03T02:50:46.237Z,5.80
2023-01-03T02:53:17.131Z,5.70
2023-01-03T02:55:46.570Z,5.80
2023-01-03T02:58:19.460Z,5.80
2023-01-03T03:00:51.453Z,5.70
2023-01-03T03:03:24.832Z,5.70
2023-01-03T03:05:58.779Z,5.70
2023-01-03T03:08:26.711Z,5.70
2023-01-03T03:11:13.290Z,5.70
2023-01-03T03:13:46.356Z,5.70
2023-01-03T03:16:40.494Z,5.70
2023-01-03T03:19:40.808Z,5.60
2023-01-03T03:22:32.775Z,5.60
2023-01-03T03:25:06.067Z,5.50
2023-01-03T03:27:53.635Z,5.50
2023-01-03T03:30:24.468Z,5.50
2023-01-03T03:32:56.529Z,5.60
2023-01-03T03:35:27.247Z,5.60
2023-01-03T03:37:58.164Z,5.60
2023-01-03T03:40:46.595Z,5.60
2023-01-03T03:43:52.277Z,5.60
2023-01-03T03:46:27.765Z,5.60
2023-01-03T03:49:19.306Z,5.60
2023-01-03T03:51:50.641Z,5.70
2023-01-03T03:54:22.113Z,5.60
2023-01-03T03:56:55.496Z,5.60
2023-01-03T03:59:24.943Z,5.50
2023-01-03T04:01:54.924Z,5.60
2023-01-03T04:04:28.821Z,5.60
2023-01-03T04:06:58.328Z,5.60
2023-01-03T04:09:26.187Z,5.60
2023-01-03T04:11:55.020Z,5.50
2023-01-03T04:14:22.846Z,5.50
2023-01-03T04:16:50.790Z,5.50
2023-01-03T04:19:18.657Z,5.60
2023-01-03T04:21:46.508Z,5.60
2023-01-03T04:24:15.718Z,5.50
2023-01-03T04:26:43.616Z,5.50
2023-01-03T04:29:11.410Z,5.40
2023-01-03T04:31:39.324Z,5.40
2023-01-03T04:34:07.279Z,5.40
2023-01-03T04:36:35.336Z,5.40
2023-01-03T04:39:03.180Z,5.40
2023-01-03T04:41:32.449Z,5.40
2023-01-03T04:44:02.247Z,5.40
2023-01-03T04:46:30.988Z,5.40
2023-01-03T04:48:59.233Z,5.30
2023-01-03T04:51:27.525Z,5.30
2023-01-03T04:53:55.450Z,5.20
2023-01-03T04:56:27.597Z,5.20
2023-01-03T04:58:57.518Z,5.20
2023-01-03T05:01:26.462Z,5.20
2023-01-03T05:03:58.973Z,5.20
2023-01-03T05:06:27.843Z,5.20
2023-01-03T05:08:55.899Z,5.20
2023-01-03T05:11:23.940Z,5.20
2023-01-03T05:13:51.755Z,5.20
2023-01-03T05:16:21.765Z,5.10
2023-01-03T05:18:53.255Z,5.20
2023-01-03T05:21:39.927Z,5.10
2023-01-03T05:24:27.978Z,5.00
2023-01-03T05:26:57.086Z,5.10
2023-01-03T05:29:26.078Z,5.00
2023-01-03T05:31:55.640Z,5.00
2023-01-03T05:34:23.873Z,5.00
2023-01-03T05:36:51.683Z,5.00
2023-01-03T05:39:19.591Z,5.00
2023-01-03T05:42:02.632Z,4.90
2023-01-03T05:44:34.165Z,4.90
2023-01-03T05:47:05.629Z,4.90
2023-01-03T05:49:34.368Z,4.90
2023-01-03T05:52:02.308Z,4.90
2023-01-03T05:54:30.321Z,4.90
2023-01-03T05:56:58.130Z,4.80
2023-01-03T05:59:26.932Z,4.80
2023-01-03T06:01:55.123Z,4.80
2023-01-03T06:04:24.636Z,4.80
2023-01-03T06:06:52.683Z,4.80
2023-01-03T06:09:20.492Z,4.70
2023-01-03T06:11:48.386Z,4.70
2023-01-03T06:14:16.175Z,4.70
2023-01-03T06:17:01.858Z,4.60
2023-01-03T06:19:31.321Z,4.60
2023-01-03T06:21:59.180Z,4.60
2023-01-03T06:24:27.022Z,4.60
2023-01-03T06:26:54.833Z,4.60
2023-01-03T06:29:22.631Z,4.50
2023-01-03T06:31:50.458Z,4.50
2023-01-03T06:34:18.401Z,4.50
2023-01-03T06:36:47.594Z,4.50
2023-01-03T06:39:15.433Z,4.50
2023-01-03T06:41:43.344Z,4.50
2023-01-03T06:44:11.637Z,4.50
2023-01-03T06:46:56.835Z,4.50
2023-01-03T06:49:42.295Z,4.50
2023-01-03T06:52:32.816Z,4.40
2023-01-03T06:55:00.759Z,4.50
2023-01-03T06:57:29.066Z,4.40
2023-01-03T06:59:56.932Z,4.40
2023-01-03T07:02:24.922Z,4.40
2023-01-03T07:04:53.091Z,4.40
2023-01-03T07:07:22.356Z,4.40
2023-01-03T07:09:50.191Z,4.40
2023-01-03T07:12:37.103Z,4.40
2023-01-03T07:15:06.354Z,4.30
2023-01-03T07:17:34.380Z,4.30
2023-01-03T07:20:02.353Z,4.30
2023-01-03T07:22:31.516Z,4.30
2023-01-03T07:24:59.365Z,4.30
2023-01-03T07:27:27.211Z,4.30
2023-01-03T07:29:55.040Z,4.20
2023-01-03T07:32:22.841Z,4.30
2023-01-03T07:34:50.723Z,4.20
2023-01-03T07:37:18.955Z,4.20
2023-01-03T07:39:48.189Z,4.20
2023-01-03T07:42:33.328Z,4.20
2023-01-03T07:45:01.312Z,4.20
2023-01-03T07:47:29.152Z,4.10
2023-01-03T07:49:57.162Z,4.10
2023-01-03T07:52:25.045Z,4.00
2023-01-03T07:54:54.462Z,4.00
2023-01-03T07:57:22.329Z,4.00
2023-01-03T07:59:50.146Z,4.00
2023-01-03T08:02:19.201Z,4.00
2023-01-03T08:04:47.406Z,4.00
2023-01-03T08:07:15.344Z,4.00
2023-01-03T08:10:00.776Z,4.00
2023-01-03T08:12:48.493Z,4.00
2023-01-03T08:15:16.565Z,4.00
2023-01-03T08:17:44.438Z,4.00
2023-01-03T08:20:12.472Z,4.00
2023-01-03T08:22:40.478Z,4.00
2023-01-03T08:25:09.082Z,4.00
2023-01-03T08:27:38.225Z,4.00
2023-01-03T08:30:07.402Z,4.00
2023-01-03T08:32:36.049Z,4.10
2023-01-03T08:35:04.901Z,4.00
2023-01-03T08:37:33.011Z,4.10
2023-01-03T08:40:04.797Z,4.10
2023-01-03T08:42:34.573Z,4.10
2023-01-03T08:45:07.404Z,4.20
2023-01-03T08:47:35.766Z,4.20
2023-01-03T08:50:03.895Z,4.20
2023-01-03T08:52:35.306Z,4.30
2023-01-03T08:55:03.613Z,4.30
2023-01-03T08:57:31.496Z,4.40
2023-01-03T08:59:59.362Z,4.40
2023-01-03T09:02:28.947Z,4.50
2023-01-03T09:04:57.022Z,4.50
2023-01-03T09:07:24.861Z,4.50
2023-01-03T09:09:53.061Z,4.60
2023-01-03T09:12:21.055Z,4.60
2023-01-03T09:14:48.982Z,4.70
2023-01-03T09:17:17.036Z,4.70
2023-01-03T09:19:46.255Z,4.80
2023-01-03T09:22:14.098Z,4.90
2023-01-03T09:24:41.911Z,4.90
2023-01-03T09:27:09.783Z,4.90
2023-01-03T09:29:37.639Z,4.90
2023-01-03T09:32:05.904Z,4.90
2023-01-03T09:34:33.833Z,4.90
2023-01-03T09:37:04.229Z,5.00
2023-01-03T09:39:32.229Z,5.00
2023-01-03T09:42:18.652Z,5.10
2023-01-03T09:44:47.549Z,5.10
2023-01-03T09:47:20.882Z,5.20
2023-01-03T09:50:18.850Z,5.20
2023-01-03T09:53:02.486Z,5.30
2023-01-03T09:55:54.303Z,5.40
2023-01-03T09:58:40.219Z,5.40
2023-01-03T10:01:47.229Z,5.50
2023-01-03T10:04:51.905Z,5.60
2023-01-03T10:07:34.715Z,5.60
2023-01-03T10:10:14.671Z,5.60
2023-01-03T10:12:55.052Z,5.60
2023-01-03T10:15:35.308Z,5.70
2023-01-03T10:18:13.251Z,5.80
2023-01-03T10:20:48.921Z,5.90
2023-01-03T10:23:17.223Z,5.80
2023-01-03T10:25:47.937Z,5.80
2023-01-03T10:28:19.655Z,5.90
2023-01-03T10:31:07.342Z,6.00
2023-01-03T10:33:40.679Z,6.00
2023-01-03T10:36:09.551Z,6.10
2023-01-03T10:38:44.751Z,6.10
2023-01-03T10:41:24.376Z,6.10
2023-01-03T10:43:59.299Z,6.10
2023-01-03T10:46:28.184Z,6.10
2023-01-03T10:51:55.132Z,6.20
2023-01-03T10:54:30.988Z,6.30
2023-01-03T10:57:00.372Z,6.30
2023-01-03T10:59:29.962Z,6.30
2023-01-03T11:02:02.885Z,6.20
2023-01-03T11:04:32.190Z,6.30
2023-01-03T11:07:13.575Z,6.20
2023-01-03T11:09:51.404Z,6.20
2023-01-03T11:12:29.639Z,6.20
2023-01-03T11:15:00.882Z,6.20
2023-01-03T11:17:30.260Z,6.30
2023-01-03T11:19:58.688Z,6.30
2023-01-03T11:22:38.348Z,6.20
2023-01-03T11:25:25.825Z,6.30
2023-01-03T11:28:15.967Z,6.40
2023-01-03T11:30:52.123Z,6.30
2023-01-03T11:33:33.969Z,6.40
2023-01-03T11:36:12.415Z,6.40
2023-01-03T11:38:52.815Z,6.40
2023-01-03T11:41:54.108Z,6.40
2023-01-03T11:44:54.614Z,6.40
2023-01-03T11:47:32.786Z,6.30
2023-01-03T11:50:15.828Z,6.20
2023-01-03T11:52:50.818Z,6.20
2023-01-03T11:55:52.884Z,6.20
2023-01-03T11:58:35.817Z,6.20
2023-01-03T12:01:15.291Z,6.20
2023-01-03T12:04:03.533Z,6.20
2023-01-03T12:06:39.215Z,6.20
2023-01-03T12:09:24.446Z,6.20
2023-01-03T12:12:19.416Z,6.30
2023-01-03T12:14:51.408Z,6.40
2023-01-03T12:17:25.529Z,6.40
2023-01-03T12:19:59.233Z,6.30
2023-01-03T12:22:34.254Z,6.30
2023-01-03T12:25:15.324Z,6.40
2023-01-03T12:27:49.678Z,6.40
2023-01-03T12:30:30.636Z,6.40
2023-01-03T12:33:05.332Z,6.50
2023-01-03T12:35:43.242Z,6.50
2023-01-03T12:38:12.941Z,6.50
2023-01-03T12:40:50.757Z,6.60
2023-01-03T12:43:26.187Z,6.60
2023-01-03T12:46:00.118Z,6.50
2023-01-03T12:48:39.765Z,6.60
2023-01-03T12:51:09.547Z,6.60
2023-01-03T12:53:43.086Z,6.60
2023-01-03T12:56:48.464Z,6.60
2023-01-03T12:59:35.100Z,6.50
2023-01-03T13:02:17.907Z,6.50
2023-01-03T13:04:50.446Z,6.50
2023-01-03T13:07:23.720Z,6.60
2023-01-03T13:10:00.946Z,6.60
2023-01-03T13:12:31.458Z,6.60
2023-01-03T13:15:15.466Z,6.60
2023-01-03T13:17:45.483Z,6.60
2023-01-03T13:20:28.570Z,6.70
2023-01-03T13:22:58.356Z,6.70
2023-01-03T13:25:33.604Z,6.70
2023-01-03T13:28:05.475Z,6.70
2023-01-03T13:30:34.857Z,6.70
2023-01-03T13:33:16.704Z,6.70
2023-01-03T13:35:59.560Z,6.70
2023-01-03T13:38:31.180Z,6.70
2023-01-03T13:41:19.709Z,6.70
2023-01-03T13:43:51.110Z,6.60
2023-01-03T13:46:23.297Z,6.60
2023-01-03T13:48:57.250Z,6.70
2023-01-03T13:51:34.998Z,6.70
2023-01-03T13:54:09.207Z,6.70
2023-01-03T13:56:59.321Z,6.70
2023-01-03T13:59:34.240Z,6.60
2023-01-03T14:02:35.933Z,6.60
2023-01-03T14:05:21.793Z,6.60
2023-01-03T14:08:09.675Z,6.60
2023-01-03T14:11:12.808Z,6.60
2023-01-03T14:13:44.046Z,6.60
2023-01-03T14:16:24.475Z,6.50
2023-01-03T14:19:04.732Z,6.50
2023-01-03T14:21:42.109Z,6.50
2023-01-03T14:24:19.945Z,6.50
2023-01-03T14:26:49.629Z,6.40
2023-01-03T14:29:21.361Z,6.40
2023-01-03T14:31:52.901Z,6.30
2023-01-03T14:34:30.898Z,6.30
2023-01-03T14:37:04.340Z,6.20
2023-01-03T14:42:05.523Z,6.10
2023-01-03T14:44:34.901Z,6.00
2023-01-03T14:47:04.848Z,5.90
2023-01-03T14:49:43.615Z,5.80
2023-01-03T14:52:19.036Z,5.80
2023-01-03T14:54:50.400Z,5.80
2023-01-03T14:57:25.892Z,5.70
2023-01-03T14:59:55.774Z,5.60
2023-01-03T15:02:25.484Z,5.50
2023-01-03T15:04:55.597Z,5.50
2023-01-03T15:07:33.319Z,5.50
2023-01-03T15:10:17.381Z,5.50
2023-01-03T15:12:50.277Z,5.50
2023-01-03T15:15:23.533Z,5.50
2023-01-03T15:17:54.271Z,5.40
2023-01-03T15:20:28.568Z,5.30
2023-01-03T15:22:57.010Z,5.30
2023-01-03T15:25:33.758Z,5.20
2023-01-03T15:28:26.456Z,5.20
2023-01-03T15:30:56.391Z,5.20
2023-01-03T15:33:33.130Z,5.20
2023-01-03T15:36:05.720Z,5.20
2023-01-03T15:38:37.001Z,5.20
2023-01-03T15:41:15.065Z,5.30
2023-01-03T15:43:43.513Z,5.30
2023-01-03T15:46:14.439Z,5.30
2023-01-03T15:48:43.647Z,5.40
2023-01-03T15:51:11.748Z,5.40
2023-01-03T15:53:44.536Z,5.40
2023-01-03T15:56:18.497Z,5.40
2023-01-03T15:58:49.198Z,5.40
2023-01-03T16:01:17.912Z,5.40
2023-01-03T16:03:47.342Z,5.50
2023-01-03T16:06:16.264Z,5.40
2023-01-03T16:08:44.744Z,5.50
2023-01-03T16:11:19.835Z,5.50
2023-01-03T16:13:54.363Z,5.50
2023-01-03T16:16:25.067Z,5.60
2023-01-03T16:18:53.976Z,5.60
2023-01-03T16:21:22.181Z,5.60
2023-01-03T16:23:51.141Z,5.70
2023-01-03T16:26:20.085Z,5.70
2023-01-03T16:28:47.940Z,5.70
2023-01-03T16:31:19.543Z,5.70
2023-01-03T16:33:49.043Z,5.80
2023-01-03T16:36:30.208Z,5.80
2023-01-03T16:38:58.404Z,5.80
2023-01-03T16:41:26.557Z,5.80
2023-01-03T16:43:54.455Z,6.00
2023-01-03T16:46:25.928Z,6.00
2023-01-03T16:48:56.316Z,6.00
2023-01-03T16:51:27.190Z,6.00
2023-01-03T16:53:56.699Z,6.00
2023-01-03T16:56:24.800Z,6.00
2023-01-03T16:58:52.965Z,6.00
2023-01-03T17:01:21.034Z,6.10
2023-01-03T17:03:50.407Z,6.10
2023-01-03T17:06:35.086Z,6.10
2023-01-03T17:09:09.837Z,6.10
2023-01-03T17:11:37.967Z,6.10
2023-01-03T17:14:05.852Z,6.10
2023-01-03T17:16:33.928Z,6.10
2023-01-03T17:19:03.143Z,6.10
2023-01-03T17:21:33.089Z,6.20
2023-01-03T17:24:03.866Z,6.20
2023-01-03T17:26:33.223Z,6.20
2023-01-03T17:29:03.536Z,6.20
2023-01-03T17:31:31.599Z,6.20
2023-01-03T17:33:59.598Z,6.20
2023-01-03T17:36:31.619Z,6.20
2023-01-03T17:39:03.201Z,6.30
2023-01-03T17:41:52.203Z,6.30
2023-01-03T17:44:20.076Z,6.30
2023-01-03T17:47:05.487Z,6.30
2023-01-03T17:49:33.410Z,6.30
2023-01-03T17:52:06.224Z,6.30
2023-01-03T17:54:37.548Z,6.30
2023-01-03T17:57:06.834Z,6.30
2023-01-03T17:59:34.973Z,6.30
2023-01-03T18:02:02.847Z,6.30
2023-01-03T18:04:57.794Z,6.30
2023-01-03T18:07:25.545Z,6.30
2023-01-03T18:09:56.066Z,6.30
2023-01-03T18:12:26.559Z,6.20
2023-01-03T18:14:54.564Z,6.30
2023-01-03T18:17:28.759Z,6.30
2023-01-03T18:19:57.194Z,6.30
2023-01-03T18:22:26.768Z,6.40
2023-01-03T18:24:56.234Z,6.40
2023-01-03T18:27:26.395Z,6.40
2023-01-03T18:29:54.390Z,6.40
2023-01-03T18:32:28.972Z,6.40
2023-01-03T18:34:57.593Z,6.40
2023-01-03T18:37:31.111Z,6.40
2023-01-03T18:39:59.061Z,6.40
2023-01-03T18:42:44.632Z,6.40
2023-01-03T18:45:13.665Z,6.30
2023-01-03T18:47:41.528Z,6.30
2023-01-03T18:50:11.058Z,6.30
2023-01-03T18:52:41.909Z,6.30
2023-01-03T18:55:16.430Z,6.30
2023-01-03T18:57:45.426Z,6.30
2023-01-03T19:00:18.306Z,6.20
2023-01-03T19:02:46.405Z,6.20
2023-01-03T19:05:14.654Z,6.20
2023-01-03T19:07:46.085Z,6.20
2023-01-03T19:10:21.531Z,6.10
2023-01-03T19:12:51.203Z,6.20
2023-01-03T19:15:21.157Z,6.10
2023-01-03T19:17:49.287Z,6.10
2023-01-03T19:20:19.556Z,6.20
2023-01-03T19:22:54.239Z,6.10
2023-01-03T19:25:25.935Z,6.10
2023-01-03T19:27:56.915Z,6.10
2023-01-03T19:30:37.214Z,6.10
2023-01-03T19:33:06.705Z,6.10
2023-01-03T19:35:34.515Z,6.10
2023-01-03T19:38:03.982Z,6.10
2023-01-03T19:40:34.582Z,6.10
2023-01-03T19:43:02.908Z,6.10
2023-01-03T19:45:32.900Z,6.10
2023-01-03T19:48:03.008Z,6.10
2023-01-03T19:50:32.566Z,6.10
2023-01-03T19:53:02.060Z,6.10
2023-01-03T19:55:33.150Z,6.10
2023-01-03T19:58:04.314Z,6.10
2023-01-03T20:00:33.664Z,6.10
2023-01-03T20:03:03.870Z,6.10
2023-01-03T20:05:35.929Z,6.10
2023-01-03T20:08:11.126Z,6.10
2023-01-03T20:10:43.024Z,6.10
2023-01-03T20:13:16.329Z,6.10
2023-01-03T20:15:45.037Z,6.10
2023-01-03T20:18:25.383Z,6.10
2023-01-03T20:20:56.264Z,6.10
2023-01-03T20:23:24.406Z,6.20
2023-01-03T20:25:53.784Z,6.20
2023-01-03T20:28:28.831Z,6.20
2023-01-03T20:30:57.893Z,6.30
2023-01-03T20:33:26.444Z,6.20
2023-01-03T20:36:21.780Z,6.20
2023-01-03T20:38:46.859Z,6.20
2023-01-03T20:41:19.084Z,6.30
2023-01-03T20:43:48.853Z,6.30
2023-01-03T20:46:19.773Z,6.30
2023-01-03T20:48:55.026Z,6.30
2023-01-03T20:51:23.978Z,6.40
2023-01-03T20:53:54.758Z,6.40
2023-01-03T20:56:26.591Z,6.40
2023-01-03T20:58:54.449Z,6.40
2023-01-03T21:01:22.359Z,6.40
2023-01-03T21:03:50.400Z,6.40
2023-01-03T21:06:19.858Z,6.30
2023-01-03T21:08:57.883Z,6.30
2023-01-03T21:11:29.024Z,6.30
2023-01-03T21:13:57.424Z,6.30
2023-01-03T21:16:33.860Z,6.30
2023-01-03T21:19:03.100Z,6.30
2023-01-03T21:21:32.167Z,6.20
2023-01-03T21:24:00.263Z,6.20
2023-01-03T21:26:29.660Z,6.20
2023-01-03T21:28:57.853Z,6.20
2023-01-03T21:31:26.233Z,6.20
2023-01-03T21:33:54.918Z,6.20
2023-01-03T21:36:25.716Z,6.20
2023-01-03T21:38:54.052Z,6.20
2023-01-03T21:41:25.684Z,6.10
2023-01-03T21:43:57.016Z,6.10
2023-01-03T21:46:26.021Z,6.10
2023-01-03T21:48:54.375Z,6.10
2023-01-03T21:51:33.485Z,6.10
2023-01-03T21:54:06.096Z,6.10
2023-01-03T21:56:36.036Z,6.10
2023-01-03T21:59:05.279Z,6.00
2023-01-03T22:01:53.119Z,6.00
2023-01-03T22:04:20.092Z,6.10
2023-01-03T22:06:47.906Z,6.10
2023-01-03T22:09:30.201Z,6.00
2023-01-03T22:11:58.036Z,6.00
2023-01-03T22:14:27.354Z,6.10
2023-01-03T22:16:55.268Z,6.10
2023-01-03T22:19:23.149Z,6.10
2023-01-03T22:21:51.050Z,6.10
2023-01-03T22:24:18.847Z,6.20
2023-01-03T22:26:46.687Z,6.20
2023-01-03T22:29:14.473Z,6.20
2023-01-03T22:31:45.681Z,6.20
2023-01-03T22:34:13.724Z,6.20
2023-01-03T22:36:41.611Z,6.20
2023-01-03T22:39:09.520Z,6.20
2023-01-03T22:41:37.375Z,6.20
2023-01-03T22:44:05.247Z,6.20
2023-01-03T22:46:33.142Z,6.20
2023-01-03T22:49:02.427Z,6.20
2023-01-03T22:51:30.240Z,6.20
2023-01-03T22:53:58.509Z,6.30
2023-01-03T22:56:26.321Z,6.30
2023-01-03T22:58:54.209Z,6.20
2023-01-03T23:01:27.478Z,6.30
2023-01-03T23:03:59.694Z,6.30
2023-01-03T23:06:30.750Z,6.30
2023-01-03T23:08:58.832Z,6.20
2023-01-03T23:11:47.689Z,6.30
2023-01-03T23:14:17.466Z,6.20
2023-01-03T23:16:45.845Z,6.20
2023-01-03T23:19:15.590Z,6.30
2023-01-03T23:21:45.987Z,6.30
2023-01-03T23:24:16.082Z,6.20
2023-01-03T23:26:44.650Z,6.30
2023-01-03T23:29:14.123Z,6.20
2023-01-03T23:31:42.345Z,6.30
2023-01-03T23:34:11.175Z,6.30
2023-01-03T23:36:39.110Z,6.30
2023-01-03T23:39:08.329Z,6.30
2023-01-03T23:41:36.270Z,6.40
2023-01-03T23:44:04.079Z,6.40
2023-01-03T23:46:32.015Z,6.40
2023-01-03T23:48:59.945Z,6.40
2023-01-03T23:51:28.246Z,6.40
2023-01-03T23:53:56.205Z,6.40
2023-01-03T23:56:26.295Z,6.40
2023-01-03T23:58:54.303Z,6.40
